createdAt,value
2022-08-26T00:01:10.951Z,99.90
2022-08-26T00:03:39.631Z,99.90
2022-08-26T00:06:07.272Z,99.90
2022-08-26T00:08:35.623Z,99.90
2022-08-26T00:11:05.618Z,99.90
2022-08-26T00:13:33.027Z,99.90
2022-08-26T00:16:00.416Z,99.90
2022-08-26T00:18:27.578Z,99.90
2022-08-26T00:20:59.237Z,99.90
2022-08-26T00:23:33.011Z,99.90
2022-08-26T00:26:00.441Z,99.90
2022-08-26T00:28:36.956Z,99.90
2022-08-26T00:31:04.541Z,99.90
2022-08-26T00:33:34.166Z,99.90
2022-08-26T00:36:02.786Z,99.90
2022-08-26T00:41:08.375Z,99.90
2022-08-26T00:43:47.136Z,99.90
2022-08-26T00:46:16.600Z,99.90
2022-08-26T00:48:44.992Z,99.90
2022-08-26T00:51:15.935Z,99.90
2022-08-26T00:53:45.711Z,99.90
2022-08-26T00:56:16.767Z,99.90
2022-08-26T00:58:45.362Z,99.90
2022-08-26T01:01:12.398Z,99.90
2022-08-26T01:03:40.214Z,99.90
2022-08-26T01:06:09.915Z,99.90
2022-08-26T01:08:40.156Z,99.90
2022-08-26T01:11:08.191Z,99.90
2022-08-26T01:13:36.892Z,99.90
2022-08-26T01:16:06.057Z,99.90
2022-08-26T01:18:33.320Z,99.90
2022-08-26T01:21:04.036Z,99.90
2022-08-26T01:23:33.761Z,99.90
2022-08-26T01:26:02.742Z,99.90
2022-08-26T01:28:31.951Z,99.90
2022-08-26T01:30:59.366Z,99.90
2022-08-26T01:33:29.859Z,99.90
2022-08-26T01:36:07.662Z,99.90
2022-08-26T01:38:36.957Z,99.90
2022-08-26T01:41:16.146Z,99.90
2022-08-26T01:43:48.451Z,99.90
2022-08-26T01:46:16.070Z,99.90
2022-08-26T01:48:44.624Z,99.90
2022-08-26T01:51:12.337Z,99.90
2022-08-26T01:53:41.789Z,99.90
2022-08-26T01:56:14.523Z,99.90
2022-08-26T01:58:42.851Z,99.90
2022-08-26T02:01:10.805Z,99.90
2022-08-26T02:03:43.336Z,99.90
2022-08-26T02:06:10.606Z,99.90
2022-08-26T02:08:38.984Z,99.90
2022-08-26T02:11:07.912Z,99.90
2022-08-26T02:13:37.843Z,99.90
2022-08-26T02:16:05.301Z,99.90
2022-08-26T02:18:37.338Z,99.90
2022-08-26T02:22:14.974Z,99.90
2022-08-26T02:24:47.445Z,99.90
2022-08-26T02:27:14.832Z,99.90
2022-08-26T02:29:44.198Z,99.90
2022-08-26T02:32:11.180Z,99.90
2022-08-26T02:34:38.489Z,99.90
2022-08-26T02:37:07.443Z,99.90
2022-08-26T02:39:38.170Z,99.90
2022-08-26T02:42:05.411Z,99.90
2022-08-26T02:44:32.558Z,99.90
2022-08-26T02:47:00.618Z,99.90
2022-08-26T02:49:27.730Z,99.90
2022-08-26T02:51:54.673Z,99.90
2022-08-26T02:54:22.175Z,99.90
2022-08-26T02:56:51.355Z,99.90
2022-08-26T02:59:18.418Z,99.90
2022-08-26T03:01:46.569Z,99.90
2022-08-26T03:04:13.899Z,99.90
2022-08-26T03:06:42.225Z,99.90
2022-08-26T03:09:09.350Z,99.90
2022-08-26T03:11:36.744Z,99.90
2022-08-26T03:14:05.051Z,99.90
2022-08-26T03:16:33.641Z,99.90
2022-08-26T03:19:01.180Z,99.90
2022-08-26T03:21:28.675Z,99.90
2022-08-26T03:23:58.566Z,99.90
2022-08-26T03:26:26.640Z,99.90
2022-08-26T03:29:13.108Z,99.90
2022-08-26T03:31:42.013Z,99.90
2022-08-26T03:34:09.649Z,99.90
2022-08-26T03:36:38.709Z,99.90
2022-08-26T03:39:05.998Z,99.90
2022-08-26T03:41:33.879Z,99.90
2022-08-26T03:44:02.466Z,99.90
2022-08-26T03:46:31.048Z,99.90
2022-08-26T03:49:00.375Z,99.90
2022-08-26T03:51:28.375Z,99.90
2022-08-26T03:53:56.152Z,99.90
2022-08-26T03:56:24.060Z,99.90
2022-08-26T03:58:51.054Z,99.90
2022-08-26T04:01:18.091Z,99.90
2022-08-26T04:03:58.184Z,99.90
2022-08-26T04:06:30.171Z,99.90
2022-08-26T04:08:58.069Z,99.90
2022-08-26T04:11:30.423Z,99.90
2022-08-26T04:13:59.633Z,99.90
2022-08-26T04:16:27.575Z,99.90
2022-08-26T04:18:55.108Z,99.90
2022-08-26T04:21:23.088Z,99.90
2022-08-26T04:23:51.406Z,99.90
2022-08-26T04:26:19.976Z,99.90
2022-08-26T04:28:47.204Z,99.90
2022-08-26T04:31:15.093Z,99.90
2022-08-26T04:33:42.327Z,99.90
2022-08-26T04:36:09.374Z,99.90
2022-08-26T04:38:36.501Z,99.90
2022-08-26T04:41:07.346Z,99.90
2022-08-26T04:43:43.011Z,99.90
2022-08-26T04:46:12.791Z,99.90
2022-08-26T04:48:41.428Z,99.90
2022-08-26T04:51:09.713Z,99.90
2022-08-26T04:53:37.128Z,99.90
2022-08-26T04:56:05.621Z,99.90
2022-08-26T04:58:34.696Z,99.90
2022-08-26T05:01:01.779Z,99.90
2022-08-26T05:03:30.605Z,99.90
2022-08-26T05:05:58.572Z,99.90
2022-08-26T05:08:26.330Z,99.90
2022-08-26T05:10:56.168Z,99.90
2022-08-26T05:13:26.534Z,99.90
2022-08-26T05:15:54.452Z,99.90
2022-08-26T05:18:24.278Z,99.90
2022-08-26T05:20:53.869Z,99.90
2022-08-26T05:23:23.064Z,99.90
2022-08-26T05:25:53.621Z,99.90
2022-08-26T05:28:23.036Z,99.90
2022-08-26T05:30:51.483Z,99.90
2022-08-26T05:33:19.112Z,99.90
2022-08-26T05:35:46.350Z,99.90
2022-08-26T05:38:15.556Z,99.90
2022-08-26T05:40:44.632Z,99.90
2022-08-26T05:43:13.415Z,99.90
2022-08-26T05:45:45.938Z,99.90
2022-08-26T05:48:15.202Z,99.90
2022-08-26T05:52:03.172Z,99.90
2022-08-26T05:54:30.381Z,99.90
2022-08-26T05:56:57.310Z,99.90
2022-08-26T05:59:24.922Z,99.90
2022-08-26T06:01:52.065Z,99.90
2022-08-26T06:04:20.013Z,99.90
2022-08-26T06:06:47.458Z,99.90
2022-08-26T06:09:18.223Z,99.90
2022-08-26T06:11:45.451Z,99.90
2022-08-26T06:14:12.448Z,99.90
2022-08-26T06:16:41.225Z,99.90
2022-08-26T06:19:10.532Z,99.90
2022-08-26T06:21:40.100Z,99.90
2022-08-26T06:24:27.569Z,99.90
2022-08-26T06:26:56.913Z,99.90
2022-08-26T06:29:25.828Z,99.90
2022-08-26T06:31:53.067Z,99.90
2022-08-26T06:34:20.192Z,99.90
2022-08-26T06:36:47.748Z,99.90
2022-08-26T06:39:15.366Z,99.90
2022-08-26T06:41:44.983Z,99.90
2022-08-26T06:44:18.770Z,99.90
2022-08-26T06:46:45.894Z,99.90
2022-08-26T06:49:17.393Z,99.90
2022-08-26T06:51:44.344Z,99.90
2022-08-26T06:54:11.458Z,99.90
2022-08-26T06:56:39.968Z,99.90
2022-08-26T06:59:07.852Z,99.90
2022-08-26T07:01:37.712Z,99.90
2022-08-26T07:04:10.533Z,99.90
2022-08-26T07:06:40.488Z,99.90
2022-08-26T07:09:09.876Z,99.90
2022-08-26T07:11:38.087Z,99.90
2022-08-26T07:14:06.183Z,99.90
2022-08-26T07:16:34.223Z,99.90
2022-08-26T07:19:08.581Z,99.90
2022-08-26T07:21:41.812Z,99.90
2022-08-26T07:24:10.530Z,99.90
2022-08-26T07:26:43.001Z,99.90
2022-08-26T07:29:29.262Z,99.90
2022-08-26T07:32:00.040Z,99.80
2022-08-26T07:34:33.063Z,99.40
2022-08-26T07:37:00.429Z,99.30
2022-08-26T07:39:28.280Z,98.90
2022-08-26T07:41:58.876Z,99.10
2022-08-26T07:44:27.244Z,99.30
2022-08-26T07:46:54.208Z,99.10
2022-08-26T07:49:21.793Z,99.20
2022-08-26T07:51:50.499Z,99.40
2022-08-26T07:54:17.498Z,99.20
2022-08-26T07:56:46.117Z,98.90
2022-08-26T07:59:13.774Z,98.80
2022-08-26T08:01:45.065Z,98.40
2022-08-26T08:04:12.632Z,99.00
2022-08-26T08:06:41.325Z,99.00
2022-08-26T08:09:12.365Z,99.10
2022-08-26T08:11:39.574Z,98.60
2022-08-26T08:14:08.423Z,99.20
2022-08-26T08:16:37.227Z,99.10
2022-08-26T08:19:06.071Z,99.00
2022-08-26T08:21:33.051Z,98.60
2022-08-26T08:24:00.665Z,98.50
2022-08-26T08:26:29.037Z,98.90
2022-08-26T08:31:58.279Z,99.40
2022-08-26T08:34:26.799Z,98.80
2022-08-26T08:36:54.369Z,99.00
2022-08-26T08:39:22.022Z,99.70
2022-08-26T08:41:54.673Z,99.80
2022-08-26T08:46:54.318Z,99.40
2022-08-26T08:49:21.755Z,99.40
2022-08-26T08:51:50.524Z,99.60
2022-08-26T08:54:17.991Z,99.90
2022-08-26T08:56:53.076Z,99.90
2022-08-26T08:59:21.357Z,99.90
2022-08-26T09:01:56.490Z,99.90
2022-08-26T09:04:30.707Z,99.90
2022-08-26T09:06:58.918Z,99.90
2022-08-26T09:09:29.689Z,99.90
2022-08-26T09:11:58.672Z,99.90
2022-08-26T09:14:25.696Z,99.90
2022-08-26T09:16:59.272Z,99.80
2022-08-26T09:19:30.161Z,99.90
2022-08-26T09:21:57.971Z,99.90
2022-08-26T09:24:28.748Z,99.90
2022-08-26T09:26:58.210Z,99.30
2022-08-26T09:29:26.711Z,98.80
2022-08-26T09:32:12.990Z,98.70
2022-08-26T09:34:52.168Z,98.90
2022-08-26T09:37:32.442Z,98.80
2022-08-26T09:40:11.277Z,98.90
2022-08-26T09:42:38.264Z,98.70
2022-08-26T09:45:08.404Z,99.50
2022-08-26T09:47:38.249Z,99.70
2022-08-26T09:50:12.627Z,99.90
2022-08-26T09:52:40.607Z,99.50
2022-08-26T09:55:13.244Z,99.20
2022-08-26T09:57:48.563Z,99.30
2022-08-26T10:00:23.541Z,99.40
2022-08-26T10:02:54.760Z,99.40
2022-08-26T10:05:36.557Z,99.40
2022-08-26T10:08:15.485Z,99.30
2022-08-26T10:10:45.202Z,99.40
2022-08-26T10:13:13.994Z,99.50
2022-08-26T10:15:50.024Z,99.50
2022-08-26T10:18:19.896Z,99.50
2022-08-26T10:20:55.399Z,99.30
2022-08-26T10:23:24.952Z,99.20
2022-08-26T10:25:56.937Z,99.30
2022-08-26T10:28:31.213Z,99.20
2022-08-26T10:31:00.920Z,99.30
2022-08-26T10:33:27.889Z,99.20
2022-08-26T10:35:56.757Z,98.40
2022-08-26T10:38:27.465Z,99.20
2022-08-26T10:40:59.001Z,98.70
2022-08-26T10:43:27.904Z,99.10
2022-08-26T10:45:57.217Z,98.50
2022-08-26T10:48:35.544Z,98.10
2022-08-26T10:51:04.728Z,98.10
2022-08-26T10:53:39.984Z,97.80
2022-08-26T10:56:15.797Z,97.30
2022-08-26T10:58:54.007Z,98.10
2022-08-26T11:01:41.268Z,98.00
2022-08-26T11:04:14.007Z,97.80
2022-08-26T11:06:46.126Z,98.10
2022-08-26T11:09:33.881Z,98.40
2022-08-26T11:12:05.150Z,98.50
2022-08-26T11:14:45.981Z,97.50
2022-08-26T11:17:35.571Z,98.60
2022-08-26T11:20:09.259Z,98.80
2022-08-26T11:22:48.085Z,98.40
2022-08-26T11:25:15.535Z,98.40
2022-08-26T11:27:51.511Z,98.10
2022-08-26T11:30:37.214Z,97.80
2022-08-26T11:33:04.801Z,96.90
2022-08-26T11:35:48.554Z,97.30
2022-08-26T11:40:00.918Z,97.20
2022-08-26T11:42:33.365Z,96.80
2022-08-26T11:45:05.465Z,96.10
2022-08-26T11:47:33.288Z,96.00
2022-08-26T11:50:11.162Z,96.30
2022-08-26T11:52:41.337Z,96.00
2022-08-26T11:55:12.001Z,96.60
2022-08-26T11:57:44.997Z,96.30
2022-08-26T12:00:22.170Z,96.10
2022-08-26T12:02:50.128Z,96.00
2022-08-26T12:05:22.444Z,96.30
2022-08-26T12:07:51.619Z,96.90
2022-08-26T12:10:30.124Z,96.80
2022-08-26T12:12:58.736Z,96.20
2022-08-26T12:15:26.389Z,96.30
2022-08-26T12:17:57.035Z,95.70
2022-08-26T12:20:31.815Z,95.80
2022-08-26T12:25:10.092Z,96.00
2022-08-26T12:27:39.944Z,94.60
2022-08-26T12:30:12.335Z,94.50
2022-08-26T12:32:57.166Z,94.40
2022-08-26T12:36:32.158Z,95.80
2022-08-26T12:40:54.901Z,95.90
2022-08-26T12:45:04.399Z,95.30
2022-08-26T12:48:30.092Z,95.40
2022-08-26T12:50:57.779Z,94.60
2022-08-26T12:53:27.248Z,94.60
2022-08-26T12:55:55.688Z,94.90
2022-08-26T12:58:24.939Z,94.10
2022-08-26T13:00:53.323Z,95.70
2022-08-26T13:03:37.748Z,95.20
2022-08-26T13:06:08.706Z,95.80
2022-08-26T13:08:43.588Z,95.80
2022-08-26T13:11:12.263Z,95.20
2022-08-26T13:13:40.304Z,95.00
2022-08-26T13:16:07.544Z,94.70
2022-08-26T13:18:36.362Z,94.40
2022-08-26T13:21:09.082Z,93.80
2022-08-26T13:23:40.612Z,93.80
2022-08-26T13:27:55.314Z,94.30
2022-08-26T13:31:16.955Z,94.60
2022-08-26T13:45:23.952Z,95.10
2022-08-26T13:50:22.565Z,97.00
2022-08-26T13:52:49.527Z,98.80
2022-08-26T13:55:16.571Z,99.90
2022-08-26T13:57:43.834Z,99.90
2022-08-26T14:00:11.818Z,99.90
2022-08-26T14:02:39.019Z,99.90
2022-08-26T14:05:06.803Z,99.90
2022-08-26T14:07:35.084Z,99.90
2022-08-26T14:10:02.294Z,99.90
2022-08-26T14:12:50.899Z,99.90
2022-08-26T14:15:18.670Z,99.90
2022-08-26T14:17:47.676Z,99.90
2022-08-26T14:20:17.453Z,99.90
2022-08-26T14:23:03.655Z,99.90
2022-08-26T14:25:33.614Z,99.90
2022-08-26T14:28:04.909Z,99.90
2022-08-26T14:30:31.962Z,99.90
2022-08-26T14:33:01.770Z,99.90
2022-08-26T14:35:31.299Z,99.90
2022-08-26T14:37:58.243Z,99.90
2022-08-26T14:40:28.498Z,99.90
2022-08-26T14:42:55.724Z,99.90
2022-08-26T14:45:30.965Z,99.90
2022-08-26T14:48:01.003Z,99.90
2022-08-26T14:50:28.042Z,99.90
2022-08-26T14:53:13.903Z,99.90
2022-08-26T14:55:42.308Z,99.90
2022-08-26T15:00:38.352Z,99.90
2022-08-26T15:03:05.825Z,99.90
2022-08-26T15:05:33.067Z,99.90
2022-08-26T15:10:25.923Z,99.90
2022-08-26T15:12:53.301Z,99.90
2022-08-26T15:16:21.171Z,99.90
2022-08-26T15:18:48.634Z,99.90
2022-08-26T15:21:45.346Z,99.90
2022-08-26T15:24:12.967Z,99.20
2022-08-26T15:26:42.533Z,99.50
2022-08-26T15:29:09.703Z,99.20
2022-08-26T15:31:36.810Z,98.40
2022-08-26T15:34:05.421Z,97.40
2022-08-26T15:36:33.020Z,97.40
2022-08-26T15:39:02.256Z,97.20
2022-08-26T15:41:29.707Z,98.00
2022-08-26T15:43:56.780Z,98.00
2022-08-26T15:49:04.804Z,97.70
2022-08-26T15:51:33.050Z,97.40
2022-08-26T15:54:01.681Z,96.00
2022-08-26T15:56:30.244Z,96.60
2022-08-26T15:58:57.635Z,96.30
2022-08-26T16:01:27.457Z,95.70
2022-08-26T16:03:55.608Z,94.30
2022-08-26T16:06:27.376Z,94.90
2022-08-26T16:08:55.524Z,94.30
2022-08-26T16:11:22.675Z,94.30
2022-08-26T16:13:50.301Z,94.10
2022-08-26T16:16:17.611Z,94.40
2022-08-26T16:18:44.980Z,95.40
2022-08-26T16:21:15.262Z,95.20
2022-08-26T16:23:45.309Z,94.80
2022-08-26T16:26:14.045Z,95.20
2022-08-26T16:28:41.096Z,95.10
2022-08-26T16:31:11.100Z,95.30
2022-08-26T16:33:38.367Z,95.80
2022-08-26T16:36:05.810Z,96.10
2022-08-26T16:38:33.255Z,96.20
2022-08-26T16:41:01.860Z,95.70
2022-08-26T16:43:28.870Z,95.80
2022-08-26T16:45:56.198Z,95.80
2022-08-26T16:48:23.720Z,95.70
2022-08-26T16:50:50.912Z,96.00
2022-08-26T16:53:19.022Z,95.80
2022-08-26T16:55:46.468Z,96.00
2022-08-26T16:58:14.803Z,96.20
2022-08-26T17:00:42.129Z,96.20
2022-08-26T17:03:09.466Z,96.50
2022-08-26T17:05:36.668Z,96.00
2022-08-26T17:08:04.571Z,95.90
2022-08-26T17:10:33.069Z,96.40
2022-08-26T17:13:00.710Z,97.30
2022-08-26T17:15:29.104Z,97.20
2022-08-26T17:17:56.731Z,97.20
2022-08-26T17:20:24.451Z,97.10
2022-08-26T17:22:52.367Z,97.40
2022-08-26T17:25:20.835Z,97.20
2022-08-26T17:27:48.837Z,98.00
2022-08-26T17:30:36.415Z,98.80
2022-08-26T17:33:10.719Z,97.80
2022-08-26T17:35:38.156Z,97.60
2022-08-26T17:38:05.301Z,97.60
2022-08-26T17:40:32.427Z,98.00
2022-08-26T17:42:59.656Z,97.70
2022-08-26T17:45:26.856Z,98.00
2022-08-26T17:47:55.888Z,97.80
2022-08-26T17:50:23.338Z,97.90
2022-08-26T17:52:50.448Z,98.30
2022-08-26T17:55:18.017Z,98.00
2022-08-26T17:57:53.631Z,98.00
2022-08-26T18:00:22.112Z,98.30
2022-08-26T18:02:49.062Z,98.50
2022-08-26T18:05:17.786Z,98.20
2022-08-26T18:07:45.111Z,98.20
2022-08-26T18:10:13.946Z,98.10
2022-08-26T18:12:41.782Z,98.10
2022-08-26T18:15:09.784Z,98.60
2022-08-26T18:17:39.080Z,98.50
2022-08-26T18:20:06.997Z,98.10
2022-08-26T18:22:35.698Z,98.30
2022-08-26T18:25:04.912Z,98.50
2022-08-26T18:27:32.040Z,98.30
2022-08-26T18:29:59.312Z,97.90
2022-08-26T18:32:26.385Z,98.30
2022-08-26T18:34:53.446Z,98.60
2022-08-26T18:38:40.376Z,98.60
2022-08-26T18:41:09.846Z,97.90
2022-08-26T18:43:37.111Z,98.20
2022-08-26T18:46:05.073Z,98.40
2022-08-26T18:49:54.906Z,97.90
2022-08-26T18:52:22.419Z,97.80
2022-08-26T18:56:37.712Z,98.20
2022-08-26T18:59:05.574Z,98.10
2022-08-26T19:01:32.885Z,97.50
2022-08-26T19:04:01.298Z,97.10
2022-08-26T19:06:32.730Z,97.30
2022-08-26T19:08:59.895Z,97.50
2022-08-26T19:11:31.657Z,97.80
2022-08-26T19:14:01.779Z,97.60
2022-08-26T19:16:29.596Z,98.00
2022-08-26T19:18:58.421Z,97.60
2022-08-26T19:21:28.069Z,97.50
2022-08-26T19:23:55.920Z,98.00
2022-08-26T19:26:23.932Z,97.70
2022-08-26T19:28:50.904Z,97.70
2022-08-26T19:31:19.239Z,97.30
2022-08-26T19:33:48.664Z,97.30
2022-08-26T19:36:17.397Z,97.50
2022-08-26T19:38:44.508Z,97.30
2022-08-26T19:41:12.660Z,97.10
2022-08-26T19:43:39.693Z,96.70
2022-08-26T19:46:11.838Z,96.50
2022-08-26T19:48:44.075Z,96.40
2022-08-26T19:51:12.401Z,96.20
2022-08-26T19:53:41.820Z,96.60
2022-08-26T19:56:09.100Z,96.40
2022-08-26T19:58:36.170Z,97.00
2022-08-26T20:01:03.239Z,96.90
2022-08-26T20:03:30.347Z,96.80
2022-08-26T20:05:58.891Z,96.90
2022-08-26T20:08:25.995Z,96.80
2022-08-26T20:12:17.330Z,97.30
2022-08-26T20:14:44.923Z,98.10
2022-08-26T20:17:12.472Z,97.70
2022-08-26T20:19:58.664Z,97.70
2022-08-26T20:23:51.679Z,97.30
2022-08-26T20:26:18.620Z,97.90
2022-08-26T20:28:45.929Z,98.20
2022-08-26T20:31:16.410Z,97.60
2022-08-26T20:33:46.442Z,97.90
2022-08-26T20:36:14.826Z,97.90
2022-08-26T20:38:42.152Z,97.70
2022-08-26T20:41:11.008Z,97.50
2022-08-26T20:43:38.027Z,97.40
2022-08-26T20:46:08.312Z,96.90
2022-08-26T20:48:43.813Z,96.70
2022-08-26T20:51:11.670Z,96.50
2022-08-26T20:53:38.890Z,96.60
2022-08-26T20:56:06.949Z,96.40
2022-08-26T20:58:36.244Z,96.40
2022-08-26T21:01:07.492Z,96.70
2022-08-26T21:03:35.723Z,96.50
2022-08-26T21:06:03.789Z,97.10
2022-08-26T21:08:33.041Z,97.00
2022-08-26T21:11:01.957Z,97.10
2022-08-26T21:13:42.851Z,97.90
2022-08-26T21:16:17.176Z,97.90
2022-08-26T21:18:44.513Z,98.10
2022-08-26T21:21:12.143Z,98.10
2022-08-26T21:23:39.649Z,97.50
2022-08-26T21:26:09.596Z,97.90
2022-08-26T21:28:37.399Z,97.70
2022-08-26T21:31:04.500Z,98.60
2022-08-26T21:33:33.395Z,98.70
2022-08-26T21:36:00.559Z,98.10
2022-08-26T21:38:30.802Z,97.50
2022-08-26T21:40:58.519Z,97.50
2022-08-26T21:43:34.837Z,97.30
2022-08-26T21:46:03.310Z,96.80
2022-08-26T21:48:33.201Z,96.40
2022-08-26T21:51:05.234Z,97.10
2022-08-26T21:53:32.332Z,97.10
2022-08-26T21:55:59.393Z,97.00
2022-08-26T21:58:26.338Z,96.90
2022-08-26T22:00:53.303Z,96.70
2022-08-26T22:03:20.220Z,96.80
2022-08-26T22:05:51.295Z,96.80
2022-08-26T22:08:20.316Z,97.10
2022-08-26T22:10:51.849Z,97.10
2022-08-26T22:13:19.696Z,97.50
2022-08-26T22:15:46.803Z,97.20
2022-08-26T22:18:14.343Z,96.90
2022-08-26T22:20:41.614Z,97.20
2022-08-26T22:23:09.057Z,97.50
2022-08-26T22:25:37.330Z,97.00
2022-08-26T22:28:04.617Z,97.30
2022-08-26T22:30:31.701Z,97.30
2022-08-26T22:32:59.096Z,97.40
2022-08-26T22:35:29.025Z,97.80
2022-08-26T22:37:57.222Z,98.10
2022-08-26T22:40:24.375Z,98.10
2022-08-26T22:42:57.861Z,98.00
2022-08-26T22:45:27.367Z,97.90
2022-08-26T22:47:54.344Z,97.70
2022-08-26T22:50:21.722Z,97.90
2022-08-26T22:52:48.651Z,98.00
2022-08-26T22:55:15.590Z,98.10
2022-08-26T22:57:42.482Z,98.30
2022-08-26T23:00:13.714Z,98.00
2022-08-26T23:02:41.245Z,98.60
2022-08-26T23:05:08.617Z,98.90
2022-08-26T23:07:36.284Z,98.60
2022-08-26T23:10:04.832Z,98.90
2022-08-26T23:12:32.554Z,98.90
2022-08-26T23:14:59.571Z,98.80
2022-08-26T23:17:27.963Z,98.60
2022-08-26T23:19:55.222Z,98.50
2022-08-26T23:22:22.245Z,98.50
2022-08-26T23:24:49.172Z,98.40
2022-08-26T23:27:16.628Z,98.10
2022-08-26T23:29:43.955Z,98.50
2022-08-26T23:32:10.916Z,98.80
2022-08-26T23:34:58.787Z,98.80
2022-08-26T23:37:27.082Z,98.80
2022-08-26T23:39:54.765Z,98.80
2022-08-26T23:42:22.819Z,98.70
2022-08-26T23:44:50.218Z,98.90
2022-08-26T23:47:17.258Z,99.00
2022-08-26T23:49:45.552Z,99.10
2022-08-26T23:52:31.013Z,99.10
2022-08-26T23:54:58.083Z,99.10
2022-08-26T23:57:25.583Z,99.00
2022-08-26T23:59:53.180Z,99.10
